sensor_id;sensor_type;location;lat;lon;timestamp;P1;durP1;ratioP1;P2;durP2;ratioP2
49123;SDS011;48506;48.202;16.274;2023-02-28T00:01:13;16.00;;;9.30;;
49123;SDS011;48506;48.202;16.274;2023-02-28T00:03:39;16.85;;;8.05;;
49123;SDS011;48506;48.202;16.274;2023-02-28T00:06:06;14.43;;;8.25;;
49123;SDS011;48506;48.202;16.274;2023-02-28T00:08:33;17.13;;;8.38;;
49123;SDS011;48506;48.202;16.274;2023-02-28T00:11:04;13.30;;;7.63;;
49123;SDS011;48506;48.202;16.274;2023-02-28T00:13:32;17.40;;;8.05;;
49123;SDS011;48506;48.202;16.274;2023-02-28T00:16:08;12.68;;;7.20;;
49123;SDS011;48506;48.202;16.274;2023-02-28T00:18:38;11.90;;;7.18;;
49123;SDS011;48506;48.202;16.274;2023-02-28T00:21:05;13.43;;;7.35;;
49123;SDS011;48506;48.202;16.274;2023-02-28T00:23:31;13.48;;;7.32;;
49123;SDS011;48506;48.202;16.274;2023-02-28T00:25:58;16.83;;;7.60;;
49123;SDS011;48506;48.202;16.274;2023-02-28T00:28:24;14.43;;;7.03;;
49123;SDS011;48506;48.202;16.274;2023-02-28T00:30:50;15.30;;;6.72;;
49123;SDS011;48506;48.202;16.274;2023-02-28T00:33:17;13.27;;;7.03;;
49123;SDS011;48506;48.202;16.274;2023-02-28T00:35:43;15.65;;;7.60;;
49123;SDS011;48506;48.202;16.274;2023-02-28T00:38:12;20.42;;;7.90;;
49123;SDS011;48506;48.202;16.274;2023-02-28T00:40:39;13.32;;;7.15;;
49123;SDS011;48506;48.202;16.274;2023-02-28T00:43:05;15.45;;;7.35;;
49123;SDS011;48506;48.202;16.274;2023-02-28T00:45:30;22.77;;;8.57;;
49123;SDS011;48506;48.202;16.274;2023-02-28T00:47:56;18.98;;;7.75;;
49123;SDS011;48506;48.202;16.274;2023-02-28T00:50:22;15.90;;;7.47;;
49123;SDS011;48506;48.202;16.274;2023-02-28T00:52:48;13.68;;;8.07;;
49123;SDS011;48506;48.202;16.274;2023-02-28T00:55:14;14.35;;;7.35;;
49123;SDS011;48506;48.202;16.274;2023-02-28T00:57:40;13.30;;;6.97;;
49123;SDS011;48506;48.202;16.274;2023-02-28T01:00:06;14.90;;;7.15;;
49123;SDS011;48506;48.202;16.274;2023-02-28T01:02:33;13.85;;;7.03;;
49123;SDS011;48506;48.202;16.274;2023-02-28T01:04:59;13.65;;;7.55;;
49123;SDS011;48506;48.202;16.274;2023-02-28T01:07:25;15.95;;;7.60;;
49123;SDS011;48506;48.202;16.274;2023-02-28T01:09:51;14.23;;;7.82;;
49123;SDS011;48506;48.202;16.274;2023-02-28T01:12:17;12.18;;;6.88;;
49123;SDS011;48506;48.202;16.274;2023-02-28T01:14:43;14.80;;;6.65;;
49123;SDS011;48506;48.202;16.274;2023-02-28T01:17:09;15.43;;;7.28;;
49123;SDS011;48506;48.202;16.274;2023-02-28T01:19:35;14.10;;;7.35;;
49123;SDS011;48506;48.202;16.274;2023-02-28T01:22:04;15.07;;;7.55;;
49123;SDS011;48506;48.202;16.274;2023-02-28T01:24:31;13.00;;;7.47;;
49123;SDS011;48506;48.202;16.274;2023-02-28T01:26:58;17.15;;;8.15;;
49123;SDS011;48506;48.202;16.274;2023-02-28T01:29:24;12.82;;;7.60;;
49123;SDS011;48506;48.202;16.274;2023-02-28T01:31:50;15.23;;;8.45;;
49123;SDS011;48506;48.202;16.274;2023-02-28T01:34:16;12.88;;;7.38;;
49123;SDS011;48506;48.202;16.274;2023-02-28T01:36:44;14.88;;;7.75;;
49123;SDS011;48506;48.202;16.274;2023-02-28T01:39:10;17.30;;;8.57;;
49123;SDS011;48506;48.202;16.274;2023-02-28T01:41:37;17.63;;;8.80;;
49123;SDS011;48506;48.202;16.274;2023-02-28T01:47:06;17.48;;;9.13;;
49123;SDS011;48506;48.202;16.274;2023-02-28T01:49:32;17.80;;;9.40;;
49123;SDS011;48506;48.202;16.274;2023-02-28T01:51:58;16.55;;;9.40;;
49123;SDS011;48506;48.202;16.274;2023-02-28T01:54:29;14.48;;;8.05;;
49123;SDS011;48506;48.202;16.274;2023-02-28T01:57:01;16.27;;;8.68;;
49123;SDS011;48506;48.202;16.274;2023-02-28T01:59:33;20.15;;;9.88;;
49123;SDS011;48506;48.202;16.274;2023-02-28T02:02:05;19.65;;;9.50;;
49123;SDS011;48506;48.202;16.274;2023-02-28T02:04:34;17.40;;;9.60;;
49123;SDS011;48506;48.202;16.274;2023-02-28T02:07:05;21.67;;;9.38;;
49123;SDS011;48506;48.202;16.274;2023-02-28T02:09:32;20.52;;;9.45;;
49123;SDS011;48506;48.202;16.274;2023-02-28T02:11:58;17.25;;;8.73;;
49123;SDS011;48506;48.202;16.274;2023-02-28T02:17:17;18.40;;;8.57;;
49123;SDS011;48506;48.202;16.274;2023-02-28T02:20:16;20.48;;;9.15;;
49123;SDS011;48506;48.202;16.274;2023-02-28T02:37:02;19.10;;;9.23;;
49123;SDS011;48506;48.202;16.274;2023-02-28T02:42:16;22.33;;;10.43;;
49123;SDS011;48506;48.202;16.274;2023-02-28T02:44:58;21.20;;;9.98;;
49123;SDS011;48506;48.202;16.274;2023-02-28T02:47:30;18.60;;;9.63;;
49123;SDS011;48506;48.202;16.274;2023-02-28T02:49:59;16.95;;;8.93;;
49123;SDS011;48506;48.202;16.274;2023-02-28T02:52:31;18.73;;;11.65;;
49123;SDS011;48506;48.202;16.274;2023-02-28T02:55:02;18.98;;;9.70;;
49123;SDS011;48506;48.202;16.274;2023-02-28T02:57:30;20.58;;;9.48;;
49123;SDS011;48506;48.202;16.274;2023-02-28T03:00:00;19.10;;;9.55;;
49123;SDS011;48506;48.202;16.274;2023-02-28T03:02:30;18.55;;;9.73;;
49123;SDS011;48506;48.202;16.274;2023-02-28T03:04:59;19.08;;;9.30;;
49123;SDS011;48506;48.202;16.274;2023-02-28T03:07:29;15.88;;;9.73;;
49123;SDS011;48506;48.202;16.274;2023-02-28T03:09:55;19.80;;;10.70;;
49123;SDS011;48506;48.202;16.274;2023-02-28T03:12:23;21.17;;;9.20;;
49123;SDS011;48506;48.202;16.274;2023-02-28T03:15:11;19.02;;;9.73;;
49123;SDS011;48506;48.202;16.274;2023-02-28T03:23:09;22.45;;;10.13;;
49123;SDS011;48506;48.202;16.274;2023-02-28T03:28:31;22.92;;;11.30;;
49123;SDS011;48506;48.202;16.274;2023-02-28T03:31:27;19.38;;;10.82;;
49123;SDS011;48506;48.202;16.274;2023-02-28T03:34:18;23.08;;;9.85;;
49123;SDS011;48506;48.202;16.274;2023-02-28T03:36:53;19.80;;;10.15;;
49123;SDS011;48506;48.202;16.274;2023-02-28T03:39:45;19.38;;;10.55;;
49123;SDS011;48506;48.202;16.274;2023-02-28T03:42:22;20.10;;;10.48;;
49123;SDS011;48506;48.202;16.274;2023-02-28T03:44:53;20.23;;;10.65;;
49123;SDS011;48506;48.202;16.274;2023-02-28T03:47:27;20.40;;;10.90;;
49123;SDS011;48506;48.202;16.274;2023-02-28T03:50:24;21.95;;;10.63;;
49123;SDS011;48506;48.202;16.274;2023-02-28T03:56:23;21.67;;;11.23;;
49123;SDS011;48506;48.202;16.274;2023-02-28T03:59:13;20.80;;;10.85;;
49123;SDS011;48506;48.202;16.274;2023-02-28T04:02:03;18.58;;;10.48;;
49123;SDS011;48506;48.202;16.274;2023-02-28T04:04:29;23.05;;;10.70;;
49123;SDS011;48506;48.202;16.274;2023-02-28T04:07:03;26.67;;;10.50;;
49123;SDS011;48506;48.202;16.274;2023-02-28T04:09:33;20.88;;;11.70;;
49123;SDS011;48506;48.202;16.274;2023-02-28T04:11:59;24.08;;;10.95;;
49123;SDS011;48506;48.202;16.274;2023-02-28T04:14:25;23.58;;;10.27;;
49123;SDS011;48506;48.202;16.274;2023-02-28T04:16:51;21.75;;;11.48;;
49123;SDS011;48506;48.202;16.274;2023-02-28T04:19:17;21.58;;;11.68;;
49123;SDS011;48506;48.202;16.274;2023-02-28T04:21:45;21.98;;;10.30;;
49123;SDS011;48506;48.202;16.274;2023-02-28T04:24:15;18.30;;;8.75;;
49123;SDS011;48506;48.202;16.274;2023-02-28T04:26:43;19.98;;;10.38;;
49123;SDS011;48506;48.202;16.274;2023-02-28T04:29:35;22.75;;;11.15;;
49123;SDS011;48506;48.202;16.274;2023-02-28T04:32:01;22.23;;;11.98;;
49123;SDS011;48506;48.202;16.274;2023-02-28T04:34:29;24.27;;;10.93;;
49123;SDS011;48506;48.202;16.274;2023-02-28T04:36:56;19.20;;;11.25;;
49123;SDS011;48506;48.202;16.274;2023-02-28T04:39:23;18.42;;;10.32;;
49123;SDS011;48506;48.202;16.274;2023-02-28T04:41:49;21.77;;;11.13;;
49123;SDS011;48506;48.202;16.274;2023-02-28T04:44:16;19.38;;;10.38;;
49123;SDS011;48506;48.202;16.274;2023-02-28T04:46:42;21.73;;;10.43;;
49123;SDS011;48506;48.202;16.274;2023-02-28T04:49:11;21.65;;;10.88;;
49123;SDS011;48506;48.202;16.274;2023-02-28T04:51:37;24.98;;;11.93;;
49123;SDS011;48506;48.202;16.274;2023-02-28T04:54:04;21.33;;;11.00;;
49123;SDS011;48506;48.202;16.274;2023-02-28T04:56:29;22.98;;;11.07;;
49123;SDS011;48506;48.202;16.274;2023-02-28T04:58:55;25.05;;;11.98;;
49123;SDS011;48506;48.202;16.274;2023-02-28T05:03:49;22.40;;;10.60;;
49123;SDS011;48506;48.202;16.274;2023-02-28T05:06:16;22.48;;;10.82;;
49123;SDS011;48506;48.202;16.274;2023-02-28T05:08:43;27.15;;;11.30;;
49123;SDS011;48506;48.202;16.274;2023-02-28T05:11:13;21.30;;;12.02;;
49123;SDS011;48506;48.202;16.274;2023-02-28T05:13:47;24.17;;;11.38;;
49123;SDS011;48506;48.202;16.274;2023-02-28T05:16:14;22.45;;;11.52;;
49123;SDS011;48506;48.202;16.274;2023-02-28T05:18:43;24.80;;;11.68;;
49123;SDS011;48506;48.202;16.274;2023-02-28T05:23:54;23.95;;;12.30;;
49123;SDS011;48506;48.202;16.274;2023-02-28T05:26:22;27.98;;;12.35;;
49123;SDS011;48506;48.202;16.274;2023-02-28T05:28:48;24.20;;;12.10;;
49123;SDS011;48506;48.202;16.274;2023-02-28T05:31:14;24.95;;;12.13;;
49123;SDS011;48506;48.202;16.274;2023-02-28T05:33:40;24.58;;;12.18;;
49123;SDS011;48506;48.202;16.274;2023-02-28T05:36:07;21.30;;;11.52;;
49123;SDS011;48506;48.202;16.274;2023-02-28T05:38:34;25.77;;;12.75;;
49123;SDS011;48506;48.202;16.274;2023-02-28T05:41:04;28.88;;;12.85;;
49123;SDS011;48506;48.202;16.274;2023-02-28T05:43:33;26.15;;;11.70;;
49123;SDS011;48506;48.202;16.274;2023-02-28T05:46:02;26.02;;;13.63;;
49123;SDS011;48506;48.202;16.274;2023-02-28T05:48:29;18.92;;;10.23;;
49123;SDS011;48506;48.202;16.274;2023-02-28T05:50:56;29.45;;;13.98;;
49123;SDS011;48506;48.202;16.274;2023-02-28T05:53:23;27.52;;;12.05;;
49123;SDS011;48506;48.202;16.274;2023-02-28T05:55:49;22.08;;;11.95;;
49123;SDS011;48506;48.202;16.274;2023-02-28T05:58:16;27.33;;;11.98;;
49123;SDS011;48506;48.202;16.274;2023-02-28T06:00:42;23.05;;;13.45;;
49123;SDS011;48506;48.202;16.274;2023-02-28T06:03:08;24.83;;;12.32;;
49123;SDS011;48506;48.202;16.274;2023-02-28T06:05:34;26.83;;;12.73;;
49123;SDS011;48506;48.202;16.274;2023-02-28T06:08:00;25.35;;;12.27;;
49123;SDS011;48506;48.202;16.274;2023-02-28T06:10:26;26.63;;;12.38;;
49123;SDS011;48506;48.202;16.274;2023-02-28T06:12:53;22.58;;;11.98;;
49123;SDS011;48506;48.202;16.274;2023-02-28T06:15:19;22.13;;;12.73;;
49123;SDS011;48506;48.202;16.274;2023-02-28T06:17:46;25.10;;;12.55;;
49123;SDS011;48506;48.202;16.274;2023-02-28T06:20:12;28.80;;;13.88;;
49123;SDS011;48506;48.202;16.274;2023-02-28T06:22:38;27.63;;;14.25;;
49123;SDS011;48506;48.202;16.274;2023-02-28T06:25:05;32.53;;;14.73;;
49123;SDS011;48506;48.202;16.274;2023-02-28T06:27:32;31.55;;;14.50;;
49123;SDS011;48506;48.202;16.274;2023-02-28T06:29:58;27.52;;;14.63;;
49123;SDS011;48506;48.202;16.274;2023-02-28T06:32:25;33.95;;;14.27;;
49123;SDS011;48506;48.202;16.274;2023-02-28T06:34:51;31.70;;;14.20;;
49123;SDS011;48506;48.202;16.274;2023-02-28T06:37:18;32.25;;;14.30;;
49123;SDS011;48506;48.202;16.274;2023-02-28T06:39:44;26.75;;;14.05;;
49123;SDS011;48506;48.202;16.274;2023-02-28T06:42:10;23.50;;;12.88;;
49123;SDS011;48506;48.202;16.274;2023-02-28T06:44:36;26.85;;;14.52;;
49123;SDS011;48506;48.202;16.274;2023-02-28T06:47:04;21.05;;;12.13;;
49123;SDS011;48506;48.202;16.274;2023-02-28T06:49:33;25.58;;;12.63;;
49123;SDS011;48506;48.202;16.274;2023-02-28T06:52:00;25.13;;;13.60;;
49123;SDS011;48506;48.202;16.274;2023-02-28T06:54:26;26.95;;;13.18;;
49123;SDS011;48506;48.202;16.274;2023-02-28T06:56:52;23.13;;;13.18;;
49123;SDS011;48506;48.202;16.274;2023-02-28T06:59:19;24.38;;;12.23;;
49123;SDS011;48506;48.202;16.274;2023-02-28T07:01:45;27.13;;;12.77;;
49123;SDS011;48506;48.202;16.274;2023-02-28T07:04:12;28.13;;;13.43;;
49123;SDS011;48506;48.202;16.274;2023-02-28T07:06:38;24.85;;;12.77;;
49123;SDS011;48506;48.202;16.274;2023-02-28T07:09:04;22.67;;;12.75;;
49123;SDS011;48506;48.202;16.274;2023-02-28T07:11:31;24.65;;;13.75;;
49123;SDS011;48506;48.202;16.274;2023-02-28T07:13:57;23.58;;;13.27;;
49123;SDS011;48506;48.202;16.274;2023-02-28T07:16:24;25.27;;;13.35;;
49123;SDS011;48506;48.202;16.274;2023-02-28T07:18:54;23.55;;;11.93;;
49123;SDS011;48506;48.202;16.274;2023-02-28T07:21:21;24.95;;;13.77;;
49123;SDS011;48506;48.202;16.274;2023-02-28T07:23:47;23.70;;;13.13;;
49123;SDS011;48506;48.202;16.274;2023-02-28T07:26:14;26.33;;;13.27;;
49123;SDS011;48506;48.202;16.274;2023-02-28T07:28:42;21.10;;;12.65;;
49123;SDS011;48506;48.202;16.274;2023-02-28T07:31:10;22.83;;;13.98;;
49123;SDS011;48506;48.202;16.274;2023-02-28T07:33:39;25.50;;;13.57;;
49123;SDS011;48506;48.202;16.274;2023-02-28T07:36:07;22.05;;;13.00;;
49123;SDS011;48506;48.202;16.274;2023-02-28T07:38:43;22.88;;;13.90;;
49123;SDS011;48506;48.202;16.274;2023-02-28T07:41:11;29.02;;;14.50;;
49123;SDS011;48506;48.202;16.274;2023-02-28T07:43:38;25.50;;;13.32;;
49123;SDS011;48506;48.202;16.274;2023-02-28T07:46:05;25.00;;;13.85;;
49123;SDS011;48506;48.202;16.274;2023-02-28T07:48:36;24.55;;;13.73;;
49123;SDS011;48506;48.202;16.274;2023-02-28T07:51:02;26.15;;;14.52;;
49123;SDS011;48506;48.202;16.274;2023-02-28T07:53:30;29.50;;;14.80;;
49123;SDS011;48506;48.202;16.274;2023-02-28T07:55:56;24.17;;;15.18;;
49123;SDS011;48506;48.202;16.274;2023-02-28T07:58:23;22.88;;;13.18;;
49123;SDS011;48506;48.202;16.274;2023-02-28T08:00:49;23.98;;;13.55;;
49123;SDS011;48506;48.202;16.274;2023-02-28T08:03:17;26.38;;;14.43;;
49123;SDS011;48506;48.202;16.274;2023-02-28T08:05:44;26.15;;;14.82;;
49123;SDS011;48506;48.202;16.274;2023-02-28T08:08:11;24.35;;;13.40;;
49123;SDS011;48506;48.202;16.274;2023-02-28T08:10:37;29.38;;;15.48;;
49123;SDS011;48506;48.202;16.274;2023-02-28T08:13:04;27.42;;;14.63;;
49123;SDS011;48506;48.202;16.274;2023-02-28T08:15:29;29.42;;;14.60;;
49123;SDS011;48506;48.202;16.274;2023-02-28T08:17:56;25.38;;;13.38;;
49123;SDS011;48506;48.202;16.274;2023-02-28T08:20:22;26.02;;;14.15;;
49123;SDS011;48506;48.202;16.274;2023-02-28T08:22:49;25.20;;;14.35;;
49123;SDS011;48506;48.202;16.274;2023-02-28T08:25:16;22.98;;;13.20;;
49123;SDS011;48506;48.202;16.274;2023-02-28T08:27:42;23.83;;;13.50;;
49123;SDS011;48506;48.202;16.274;2023-02-28T08:30:12;25.25;;;14.70;;
49123;SDS011;48506;48.202;16.274;2023-02-28T08:32:39;25.05;;;12.57;;
49123;SDS011;48506;48.202;16.274;2023-02-28T08:35:05;25.38;;;13.48;;
49123;SDS011;48506;48.202;16.274;2023-02-28T08:37:32;22.35;;;12.85;;
49123;SDS011;48506;48.202;16.274;2023-02-28T08:39:58;24.85;;;14.75;;
49123;SDS011;48506;48.202;16.274;2023-02-28T08:42:24;24.15;;;13.02;;
49123;SDS011;48506;48.202;16.274;2023-02-28T08:44:49;29.63;;;13.13;;
49123;SDS011;48506;48.202;16.274;2023-02-28T08:47:16;30.73;;;13.55;;
49123;SDS011;48506;48.202;16.274;2023-02-28T08:49:42;28.08;;;13.95;;
49123;SDS011;48506;48.202;16.274;2023-02-28T08:52:08;22.23;;;13.55;;
49123;SDS011;48506;48.202;16.274;2023-02-28T08:54:34;24.80;;;14.02;;
49123;SDS011;48506;48.202;16.274;2023-02-28T08:57:02;22.60;;;12.65;;
49123;SDS011;48506;48.202;16.274;2023-02-28T08:59:28;23.05;;;13.45;;
49123;SDS011;48506;48.202;16.274;2023-02-28T09:01:55;24.38;;;12.98;;
49123;SDS011;48506;48.202;16.274;2023-02-28T09:04:21;28.20;;;13.95;;
49123;SDS011;48506;48.202;16.274;2023-02-28T09:06:48;21.02;;;12.50;;
49123;SDS011;48506;48.202;16.274;2023-02-28T09:09:14;26.52;;;13.00;;
49123;SDS011;48506;48.202;16.274;2023-02-28T09:11:42;27.15;;;13.13;;
49123;SDS011;48506;48.202;16.274;2023-02-28T09:14:08;21.52;;;12.65;;
49123;SDS011;48506;48.202;16.274;2023-02-28T09:16:34;22.38;;;12.95;;
49123;SDS011;48506;48.202;16.274;2023-02-28T09:19:00;19.63;;;10.75;;
49123;SDS011;48506;48.202;16.274;2023-02-28T09:21:26;20.75;;;11.60;;
49123;SDS011;48506;48.202;16.274;2023-02-28T09:23:53;20.98;;;10.77;;
49123;SDS011;48506;48.202;16.274;2023-02-28T09:26:23;21.20;;;11.77;;
49123;SDS011;48506;48.202;16.274;2023-02-28T09:28:51;21.98;;;13.02;;
49123;SDS011;48506;48.202;16.274;2023-02-28T09:31:19;24.38;;;11.98;;
49123;SDS011;48506;48.202;16.274;2023-02-28T09:33:50;18.25;;;11.77;;
49123;SDS011;48506;48.202;16.274;2023-02-28T09:36:18;25.63;;;12.07;;
49123;SDS011;48506;48.202;16.274;2023-02-28T09:38:45;18.20;;;10.98;;
49123;SDS011;48506;48.202;16.274;2023-02-28T09:41:13;21.50;;;11.48;;
49123;SDS011;48506;48.202;16.274;2023-02-28T09:43:47;21.02;;;12.55;;
49123;SDS011;48506;48.202;16.274;2023-02-28T09:46:25;23.77;;;12.27;;
49123;SDS011;48506;48.202;16.274;2023-02-28T09:49:08;21.00;;;11.68;;
49123;SDS011;48506;48.202;16.274;2023-02-28T09:51:43;23.10;;;13.02;;
49123;SDS011;48506;48.202;16.274;2023-02-28T09:54:17;22.88;;;12.32;;
49123;SDS011;48506;48.202;16.274;2023-02-28T09:56:48;21.95;;;12.65;;
49123;SDS011;48506;48.202;16.274;2023-02-28T09:59:40;21.23;;;12.43;;
49123;SDS011;48506;48.202;16.274;2023-02-28T10:05:15;20.27;;;11.00;;
49123;SDS011;48506;48.202;16.274;2023-02-28T10:07:50;21.67;;;12.18;;
49123;SDS011;48506;48.202;16.274;2023-02-28T10:10:34;23.58;;;11.90;;
49123;SDS011;48506;48.202;16.274;2023-02-28T10:13:16;21.25;;;12.38;;
49123;SDS011;48506;48.202;16.274;2023-02-28T10:16:02;19.15;;;12.20;;
49123;SDS011;48506;48.202;16.274;2023-02-28T10:18:48;21.63;;;11.48;;
49123;SDS011;48506;48.202;16.274;2023-02-28T10:21:23;19.27;;;11.77;;
49123;SDS011;48506;48.202;16.274;2023-02-28T10:24:13;21.45;;;11.75;;
49123;SDS011;48506;48.202;16.274;2023-02-28T10:27:01;18.27;;;11.05;;
49123;SDS011;48506;48.202;16.274;2023-02-28T10:29:42;20.15;;;12.38;;
49123;SDS011;48506;48.202;16.274;2023-02-28T10:32:11;12.98;;;9.43;;
49123;SDS011;48506;48.202;16.274;2023-02-28T10:34:40;17.77;;;11.73;;
49123;SDS011;48506;48.202;16.274;2023-02-28T10:37:06;23.27;;;12.30;;
49123;SDS011;48506;48.202;16.274;2023-02-28T10:42:04;17.88;;;11.98;;
49123;SDS011;48506;48.202;16.274;2023-02-28T10:44:45;22.48;;;13.60;;
49123;SDS011;48506;48.202;16.274;2023-02-28T10:47:15;20.27;;;12.35;;
49123;SDS011;48506;48.202;16.274;2023-02-28T10:49:46;18.65;;;12.43;;
49123;SDS011;48506;48.202;16.274;2023-02-28T10:52:14;23.42;;;13.18;;
49123;SDS011;48506;48.202;16.274;2023-02-28T10:55:15;19.90;;;11.95;;
49123;SDS011;48506;48.202;16.274;2023-02-28T10:57:45;21.38;;;12.13;;
49123;SDS011;48506;48.202;16.274;2023-02-28T11:00:14;17.95;;;12.15;;
49123;SDS011;48506;48.202;16.274;2023-02-28T11:02:48;19.67;;;11.93;;
49123;SDS011;48506;48.202;16.274;2023-02-28T11:05:28;19.40;;;12.25;;
49123;SDS011;48506;48.202;16.274;2023-02-28T11:08:20;19.85;;;12.07;;
49123;SDS011;48506;48.202;16.274;2023-02-28T11:10:53;21.27;;;12.85;;
49123;SDS011;48506;48.202;16.274;2023-02-28T11:13:31;18.63;;;11.57;;
49123;SDS011;48506;48.202;16.274;2023-02-28T11:16:03;21.40;;;12.35;;
49123;SDS011;48506;48.202;16.274;2023-02-28T11:21:18;20.45;;;12.65;;
49123;SDS011;48506;48.202;16.274;2023-02-28T11:23:49;20.95;;;12.10;;
49123;SDS011;48506;48.202;16.274;2023-02-28T11:26:34;18.00;;;11.55;;
49123;SDS011;48506;48.202;16.274;2023-02-28T11:29:03;18.45;;;11.02;;
49123;SDS011;48506;48.202;16.274;2023-02-28T11:31:37;19.27;;;13.55;;
49123;SDS011;48506;48.202;16.274;2023-02-28T11:34:10;21.98;;;12.70;;
49123;SDS011;48506;48.202;16.274;2023-02-28T11:36:50;20.77;;;12.02;;
49123;SDS011;48506;48.202;16.274;2023-02-28T11:39:18;18.63;;;11.20;;
49123;SDS011;48506;48.202;16.274;2023-02-28T11:42:00;18.65;;;11.75;;
49123;SDS011;48506;48.202;16.274;2023-02-28T11:47:26;17.33;;;11.90;;
49123;SDS011;48506;48.202;16.274;2023-02-28T11:50:12;16.77;;;11.10;;
49123;SDS011;48506;48.202;16.274;2023-02-28T11:52:51;20.33;;;11.25;;
49123;SDS011;48506;48.202;16.274;2023-02-28T11:55:25;17.23;;;10.85;;
49123;SDS011;48506;48.202;16.274;2023-02-28T11:58:14;15.75;;;10.55;;
49123;SDS011;48506;48.202;16.274;2023-02-28T12:07:03;19.40;;;11.75;;
49123;SDS011;48506;48.202;16.274;2023-02-28T12:12:36;18.95;;;12.05;;
49123;SDS011;48506;48.202;16.274;2023-02-28T12:17:59;11.48;;;8.23;;
49123;SDS011;48506;48.202;16.274;2023-02-28T12:26:14;18.77;;;11.27;;
49123;SDS011;48506;48.202;16.274;2023-02-28T12:28:44;16.58;;;11.05;;
49123;SDS011;48506;48.202;16.274;2023-02-28T12:31:21;16.23;;;11.35;;
49123;SDS011;48506;48.202;16.274;2023-02-28T12:33:52;18.42;;;11.20;;
49123;SDS011;48506;48.202;16.274;2023-02-28T12:36:22;17.13;;;10.75;;
49123;SDS011;48506;48.202;16.274;2023-02-28T12:41:36;18.30;;;11.43;;
49123;SDS011;48506;48.202;16.274;2023-02-28T12:44:12;17.40;;;10.40;;
49123;SDS011;48506;48.202;16.274;2023-02-28T12:46:44;17.15;;;11.43;;
49123;SDS011;48506;48.202;16.274;2023-02-28T12:49:21;16.80;;;10.70;;
49123;SDS011;48506;48.202;16.274;2023-02-28T12:51:59;15.70;;;9.75;;
49123;SDS011;48506;48.202;16.274;2023-02-28T13:10:44;12.95;;;8.93;;
49123;SDS011;48506;48.202;16.274;2023-02-28T13:13:14;16.05;;;9.55;;
49123;SDS011;48506;48.202;16.274;2023-02-28T13:15:56;14.15;;;8.77;;
49123;SDS011;48506;48.202;16.274;2023-02-28T13:18:32;12.85;;;7.85;;
49123;SDS011;48506;48.202;16.274;2023-02-28T13:21:06;20.10;;;10.00;;
49123;SDS011;48506;48.202;16.274;2023-02-28T13:29:02;17.58;;;9.23;;
49123;SDS011;48506;48.202;16.274;2023-02-28T13:39:51;13.60;;;9.27;;
49123;SDS011;48506;48.202;16.274;2023-02-28T13:52:58;12.48;;;8.40;;
49123;SDS011;48506;48.202;16.274;2023-02-28T14:06:51;13.02;;;7.88;;
49123;SDS011;48506;48.202;16.274;2023-02-28T14:09:30;13.30;;;9.23;;
49123;SDS011;48506;48.202;16.274;2023-02-28T14:15:25;10.93;;;7.75;;
49123;SDS011;48506;48.202;16.274;2023-02-28T14:17:55;10.65;;;7.53;;
49123;SDS011;48506;48.202;16.274;2023-02-28T14:20:22;11.43;;;7.80;;
49123;SDS011;48506;48.202;16.274;2023-02-28T14:22:57;10.32;;;7.43;;
49123;SDS011;48506;48.202;16.274;2023-02-28T14:36:35;10.88;;;8.00;;
49123;SDS011;48506;48.202;16.274;2023-02-28T14:39:07;13.27;;;8.90;;
49123;SDS011;48506;48.202;16.274;2023-02-28T14:41:40;10.45;;;7.78;;
49123;SDS011;48506;48.202;16.274;2023-02-28T14:46:52;11.90;;;8.27;;
49123;SDS011;48506;48.202;16.274;2023-02-28T14:54:35;10.63;;;8.63;;
49123;SDS011;48506;48.202;16.274;2023-02-28T14:57:02;12.18;;;8.80;;
49123;SDS011;48506;48.202;16.274;2023-02-28T14:59:31;13.15;;;8.60;;
49123;SDS011;48506;48.202;16.274;2023-02-28T15:02:18;14.35;;;8.82;;
49123;SDS011;48506;48.202;16.274;2023-02-28T15:04:56;13.05;;;8.57;;
49123;SDS011;48506;48.202;16.274;2023-02-28T15:07:43;13.35;;;8.30;;
49123;SDS011;48506;48.202;16.274;2023-02-28T15:10:20;13.65;;;9.32;;
49123;SDS011;48506;48.202;16.274;2023-02-28T15:12:52;12.50;;;8.35;;
49123;SDS011;48506;48.202;16.274;2023-02-28T15:15:19;12.13;;;8.38;;
49123;SDS011;48506;48.202;16.274;2023-02-28T15:17:52;11.00;;;8.05;;
49123;SDS011;48506;48.202;16.274;2023-02-28T15:20:21;14.32;;;9.02;;
49123;SDS011;48506;48.202;16.274;2023-02-28T15:22:50;13.55;;;9.10;;
49123;SDS011;48506;48.202;16.274;2023-02-28T15:25:18;11.82;;;9.25;;
49123;SDS011;48506;48.202;16.274;2023-02-28T15:27:47;12.38;;;8.63;;
49123;SDS011;48506;48.202;16.274;2023-02-28T15:30:18;13.80;;;8.88;;
49123;SDS011;48506;48.202;16.274;2023-02-28T15:33:05;10.93;;;7.88;;
49123;SDS011;48506;48.202;16.274;2023-02-28T15:35:44;14.13;;;9.05;;
49123;SDS011;48506;48.202;16.274;2023-02-28T15:38:23;16.70;;;10.55;;
49123;SDS011;48506;48.202;16.274;2023-02-28T15:40:52;13.55;;;9.30;;
49123;SDS011;48506;48.202;16.274;2023-02-28T15:45:50;12.23;;;8.75;;
49123;SDS011;48506;48.202;16.274;2023-02-28T15:48:28;11.52;;;8.57;;
49123;SDS011;48506;48.202;16.274;2023-02-28T15:53:35;13.32;;;9.45;;
49123;SDS011;48506;48.202;16.274;2023-02-28T15:56:13;15.25;;;10.45;;
49123;SDS011;48506;48.202;16.274;2023-02-28T15:58:55;20.20;;;10.77;;
49123;SDS011;48506;48.202;16.274;2023-02-28T16:01:30;13.10;;;9.70;;
49123;SDS011;48506;48.202;16.274;2023-02-28T16:04:15;15.70;;;10.38;;
49123;SDS011;48506;48.202;16.274;2023-02-28T16:06:43;16.05;;;10.25;;
49123;SDS011;48506;48.202;16.274;2023-02-28T16:09:27;16.63;;;10.57;;
49123;SDS011;48506;48.202;16.274;2023-02-28T16:11:55;17.02;;;10.73;;
49123;SDS011;48506;48.202;16.274;2023-02-28T16:14:27;15.13;;;10.50;;
49123;SDS011;48506;48.202;16.274;2023-02-28T16:17:04;16.80;;;10.77;;
49123;SDS011;48506;48.202;16.274;2023-02-28T16:19:36;16.75;;;9.95;;
49123;SDS011;48506;48.202;16.274;2023-02-28T16:22:02;14.93;;;9.68;;
49123;SDS011;48506;48.202;16.274;2023-02-28T16:24:28;17.08;;;10.73;;
49123;SDS011;48506;48.202;16.274;2023-02-28T16:26:54;17.70;;;10.55;;
49123;SDS011;48506;48.202;16.274;2023-02-28T16:29:23;16.88;;;10.68;;
49123;SDS011;48506;48.202;16.274;2023-02-28T16:31:54;14.90;;;9.80;;
49123;SDS011;48506;48.202;16.274;2023-02-28T16:34:20;19.65;;;10.90;;
49123;SDS011;48506;48.202;16.274;2023-02-28T16:36:47;21.10;;;11.50;;
49123;SDS011;48506;48.202;16.274;2023-02-28T16:39:15;16.83;;;11.38;;
49123;SDS011;48506;48.202;16.274;2023-02-28T16:41:44;18.90;;;10.48;;
49123;SDS011;48506;48.202;16.274;2023-02-28T16:44:20;15.20;;;9.77;;
49123;SDS011;48506;48.202;16.274;2023-02-28T16:46:53;14.70;;;10.70;;
49123;SDS011;48506;48.202;16.274;2023-02-28T16:49:19;16.30;;;11.23;;
49123;SDS011;48506;48.202;16.274;2023-02-28T16:51:46;17.20;;;10.65;;
49123;SDS011;48506;48.202;16.274;2023-02-28T16:54:12;18.95;;;11.90;;
49123;SDS011;48506;48.202;16.274;2023-02-28T16:56:42;18.45;;;12.43;;
49123;SDS011;48506;48.202;16.274;2023-02-28T16:59:10;20.77;;;12.75;;
49123;SDS011;48506;48.202;16.274;2023-02-28T17:01:38;16.25;;;11.73;;
49123;SDS011;48506;48.202;16.274;2023-02-28T17:04:05;25.80;;;13.40;;